createdAt,value
2023-01-09T00:06:07.479Z,4.75
2023-01-09T00:16:15.122Z,4.75
2023-01-09T00:26:22.938Z,4.61
2023-01-09T00:36:31.324Z,4.45
2023-01-09T00:46:46.071Z,4.32
2023-01-09T00:56:53.527Z,4.20
2023-01-09T01:07:18.192Z,4.10
2023-01-09T01:17:25.272Z,3.96
2023-01-09T01:27:32.633Z,3.87
2023-01-09T01:37:40.580Z,3.77
2023-01-09T01:47:49.914Z,3.62
2023-01-09T01:58:01.976Z,3.48
2023-01-09T02:08:07.962Z,3.37
2023-01-09T02:18:23.983Z,3.32
2023-01-09T02:28:39.672Z,3.28
2023-01-09T02:38:49.090Z,3.19
2023-01-09T02:48:56.945Z,3.18
2023-01-09T02:59:15.738Z,3.20
2023-01-09T03:09:26.363Z,3.22
2023-01-09T03:19:37.265Z,3.27
2023-01-09T03:29:43.759Z,3.30
2023-01-09T03:39:51.198Z,3.26
2023-01-09T03:49:58.349Z,3.17
2023-01-09T04:00:04.742Z,3.09
2023-01-09T04:10:14.647Z,3.03
2023-01-09T04:20:21.619Z,2.98
2023-01-09T04:30:28.960Z,2.89
2023-01-09T04:40:36.088Z,2.79
2023-01-09T04:50:43.397Z,2.74
2023-01-09T05:00:50.666Z,2.72
2023-01-09T05:10:57.982Z,2.67
2023-01-09T05:21:04.779Z,2.70
2023-01-09T05:31:11.994Z,2.74
2023-01-09T05:41:19.231Z,2.74
2023-01-09T05:51:26.657Z,2.81
2023-01-09T06:01:33.973Z,2.87
2023-01-09T06:11:41.195Z,2.88
2023-01-09T06:21:48.574Z,2.91
2023-01-09T06:31:55.944Z,3.05
2023-01-09T06:42:03.135Z,3.31
2023-01-09T06:52:10.395Z,3.52
2023-01-09T07:02:16.405Z,3.72
2023-01-09T07:12:23.428Z,3.90
2023-01-09T07:22:30.597Z,3.99
2023-01-09T07:32:37.195Z,4.09
2023-01-09T07:42:44.434Z,4.13
2023-01-09T07:52:51.470Z,4.23
2023-01-09T08:02:58.718Z,4.41
2023-01-09T08:13:06.181Z,4.63
2023-01-09T08:23:12.514Z,4.82
2023-01-09T08:33:19.800Z,4.91
2023-01-09T08:43:43.394Z,4.98
2023-01-09T08:53:49.773Z,5.06
2023-01-09T09:03:57.161Z,5.16
2023-01-09T09:14:04.968Z,5.28
2023-01-09T09:24:11.561Z,5.46
2023-01-09T09:34:19.006Z,5.62
2023-01-09T09:44:53.793Z,5.80
2023-01-09T09:55:08.161Z,5.99
2023-01-09T10:05:13.622Z,6.15
2023-01-09T10:15:19.996Z,6.31
2023-01-09T10:25:25.890Z,6.49
2023-01-09T10:35:51.228Z,6.52
2023-01-09T10:46:03.434Z,6.55
2023-01-09T10:56:08.760Z,6.62
2023-01-09T11:06:16.789Z,6.70
2023-01-09T11:16:24.565Z,6.81
2023-01-09T11:26:33.263Z,6.91
2023-01-09T11:36:40.544Z,7.03
2023-01-09T11:46:47.652Z,7.22
2023-01-09T11:56:56.507Z,7.48
2023-01-09T12:07:22.259Z,7.63
2023-01-09T12:17:57.776Z,7.65
2023-01-09T12:28:08.178Z,7.78
2023-01-09T12:38:23.999Z,7.89
2023-01-09T12:48:34.714Z,7.94
2023-01-09T12:58:41.952Z,8.02
2023-01-09T13:08:46.972Z,7.97
2023-01-09T13:18:58.933Z,7.94
2023-01-09T13:29:04.457Z,7.97
2023-01-09T13:39:20.182Z,7.95
2023-01-09T13:49:48.975Z,7.97
2023-01-09T13:59:56.013Z,7.96
2023-01-09T14:10:06.497Z,7.93
2023-01-09T14:20:20.084Z,7.88
2023-01-09T14:30:37.331Z,7.85
2023-01-09T14:40:46.342Z,7.85
2023-01-09T14:50:57.235Z,7.81
2023-01-09T15:01:06.271Z,7.75
2023-01-09T15:11:15.106Z,7.67
2023-01-09T15:21:23.344Z,7.63
2023-01-09T15:31:31.680Z,7.60
2023-01-09T15:41:57.204Z,7.52
2023-01-09T15:52:05.295Z,7.46
2023-01-09T16:02:32.424Z,7.38
2023-01-09T16:12:43.036Z,7.32
2023-01-09T16:22:55.373Z,7.16
2023-01-09T16:33:02.685Z,7.09
2023-01-09T16:43:15.694Z,7.09
2023-01-09T16:53:24.354Z,7.10
2023-01-09T17:03:31.546Z,7.14
2023-01-09T17:13:38.590Z,7.07
2023-01-09T17:23:46.092Z,6.94
2023-01-09T17:33:54.035Z,6.85
2023-01-09T17:44:02.212Z,6.78
2023-01-09T17:54:10.373Z,6.74
2023-01-09T18:04:17.465Z,6.73
2023-01-09T18:14:24.699Z,6.72
2023-01-09T18:24:32.210Z,6.68
2023-01-09T18:34:38.733Z,6.60
2023-01-09T18:44:45.792Z,6.60
2023-01-09T18:54:53.989Z,6.56
2023-01-09T19:05:00.271Z,6.50
2023-01-09T19:15:11.600Z,6.39
2023-01-09T19:25:17.615Z,6.22
2023-01-09T19:35:24.952Z,5.90
2023-01-09T19:45:32.482Z,5.75
2023-01-09T19:55:39.838Z,5.74
2023-01-09T20:05:47.406Z,5.73
2023-01-09T20:15:54.578Z,5.69
2023-01-09T20:26:02.189Z,5.55
2023-01-09T20:36:11.078Z,5.47
2023-01-09T20:46:18.383Z,5.43
2023-01-09T20:56:25.262Z,5.45
2023-01-09T21:06:33.339Z,5.48
2023-01-09T21:16:40.741Z,5.42
2023-01-09T21:26:48.148Z,5.23
2023-01-09T21:36:55.341Z,5.07
2023-01-09T21:47:04.532Z,5.00
2023-01-09T21:57:13.180Z,4.98
2023-01-09T22:07:20.525Z,4.99
2023-01-09T22:17:29.334Z,4.83
2023-01-09T22:27:37.421Z,4.72
2023-01-09T22:37:44.793Z,4.65
2023-01-09T22:47:52.098Z,4.65
2023-01-09T22:58:00.454Z,4.76
2023-01-09T23:08:04.537Z,4.87
2023-01-09T23:18:11.674Z,4.81
2023-01-09T23:28:18.255Z,4.64
2023-01-09T23:38:24.409Z,4.59
2023-01-09T23:48:31.467Z,4.64
2023-01-09T23:58:38.815Z,4.74
